Time;durP1;ratioP1;P1;durP2;ratioP2;P2;SDS_P1;SDS_P2;PMS_P1;PMS_P2;Temp;Humidity;BMP_temperature;BMP_pressure;BME280_temperature;BME280_humidity;BME280_pressure;Samples;Min_cycle;Max_cycle;Signal;HPM_P1;HPM_P2
2023/05/21 00:00:43;;;;;;;12.07;6.68;;;;;;;16.11;67.67;101060.16;5015313;28;20057;-64
2023/05/21 00:03:13;;;;;;;12.23;6.78;;;;;;;16.19;67.75;101061.25;4995056;28;20058;-64
2023/05/21 00:05:40;;;;;;;13.02;7.57;;;;;;;16.28;67.58;101067.53;5014490;28;20049;-64
2023/05/21 00:08:08;;;;;;;11.23;6.68;;;;;;;16.29;67.76;101069.97;5012160;28;20084;-64
2023/05/21 00:10:35;;;;;;;12.80;6.72;;;;;;;16.44;66.95;101071.28;5009578;28;20046;-64
2023/05/21 00:13:02;;;;;;;13.68;6.40;;;;;;;16.59;66.75;101068.69;4995581;28;20054;-66
2023/05/21 00:15:30;;;;;;;15.73;6.80;;;;;;;16.61;66.45;101058.03;4995880;28;20065;-64
2023/05/21 00:17:57;;;;;;;14.70;6.82;;;;;;;16.33;67.31;101062.56;5013675;28;20046;-63
2023/05/21 00:20:24;;;;;;;13.57;7.20;;;;;;;16.53;66.99;101058.91;5014292;28;20057;-63
2023/05/21 00:22:52;;;;;;;14.43;7.20;;;;;;;16.50;67.02;101061.56;5010187;28;20065;-64
2023/05/21 00:25:19;;;;;;;13.63;7.45;;;;;;;16.30;67.88;101059.66;4995281;28;20055;-65
2023/05/21 00:27:48;;;;;;;14.18;7.85;;;;;;;16.34;68.40;101055.00;4995232;28;20062;-64
2023/05/21 00:30:15;;;;;;;14.82;8.30;;;;;;;16.33;68.04;101053.41;4995421;28;20061;-64
2023/05/21 00:32:43;;;;;;;18.75;8.10;;;;;;;15.78;70.12;101057.38;4995403;28;20061;-64
2023/05/21 00:35:10;;;;;;;16.23;8.95;;;;;;;15.84;70.20;101048.81;5010510;28;20054;-64
2023/05/21 00:37:38;;;;;;;14.77;8.80;;;;;;;15.80;70.56;101057.03;5012070;28;20042;-64
2023/05/21 00:40:07;;;;;;;15.27;8.25;;;;;;;15.60;71.59;101046.75;4996849;28;20117;-64
2023/05/21 00:42:38;;;;;;;15.25;8.25;;;;;;;15.74;71.00;101048.06;5013635;28;20517;-65
2023/05/21 00:45:06;;;;;;;13.43;7.90;;;;;;;15.76;71.24;101051.34;5014111;28;20069;-64
2023/05/21 00:47:34;;;;;;;14.27;8.45;;;;;;;15.72;71.46;101039.31;5013856;28;20053;-63
2023/05/21 00:50:03;;;;;;;19.88;8.68;;;;;;;15.84;70.86;101041.31;5013459;28;20061;-63
2023/05/21 00:52:30;;;;;;;17.10;8.30;;;;;;;15.68;71.47;101032.78;5007430;28;20046;-63
2023/05/21 00:54:57;;;;;;;18.58;9.05;;;;;;;15.88;70.82;101028.38;4994728;28;20046;-66
2023/05/21 00:57:26;;;;;;;17.17;9.05;;;;;;;16.14;70.07;101031.72;4981522;28;20057;-66
2023/05/21 00:59:53;;;;;;;21.05;9.70;;;;;;;15.97;70.54;101029.06;5013478;28;20038;-64
2023/05/21 01:02:22;;;;;;;16.55;9.10;;;;;;;15.71;71.46;101029.31;5028087;28;20124;-64
2023/05/21 01:04:53;;;;;;;17.40;9.50;;;;;;;15.95;70.74;101033.38;5011795;28;20054;-64
2023/05/21 01:07:20;;;;;;;17.13;9.30;;;;;;;15.88;71.06;101022.00;4995957;28;20096;-64
2023/05/21 01:09:48;;;;;;;22.65;9.48;;;;;;;15.91;70.66;101026.84;5012428;28;20046;-64
2023/05/21 01:12:16;;;;;;;15.68;9.00;;;;;;;15.92;70.87;101020.16;5029234;28;20054;-65
2023/05/21 01:14:44;;;;;;;16.08;9.23;;;;;;;16.15;69.98;101024.97;4995846;28;20045;-64
2023/05/21 01:17:12;;;;;;;18.13;9.27;;;;;;;16.08;70.16;101030.28;5012627;28;20057;-64
2023/05/21 01:19:41;;;;;;;19.05;9.75;;;;;;;15.58;71.93;101027.66;5013957;28;20057;-63
2023/05/21 01:22:09;;;;;;;21.50;10.20;;;;;;;15.69;71.69;101028.84;4997100;28;20050;-64
2023/05/21 01:24:37;;;;;;;18.85;11.40;;;;;;;15.57;72.57;101045.44;4980295;28;20046;-64
2023/05/21 01:27:06;;;;;;;20.52;11.32;;;;;;;15.63;72.39;101029.41;5014171;28;20069;-65
2023/05/21 01:29:33;;;;;;;18.38;10.70;;;;;;;15.69;71.94;101036.38;5008478;28;20691;-64
2023/05/21 01:32:08;;;;;;;19.55;12.38;;;;;;;15.52;72.74;101036.50;5011138;28;20077;-64
2023/05/21 01:34:42;;;;;;;18.05;11.82;;;;;;;15.56;72.82;101032.72;5015535;28;20072;-64
2023/05/21 01:37:23;;;;;;;20.27;12.00;;;;;;;15.92;71.13;101034.84;5002742;28;20046;-64
2023/05/21 01:40:02;;;;;;;20.10;12.10;;;;;;;15.87;70.99;101037.84;5009604;28;20062;-64
2023/05/21 01:42:31;;;;;;;20.77;11.73;;;;;;;15.42;72.91;101037.75;4976169;28;20065;-63
2023/05/21 01:44:59;;;;;;;20.15;12.02;;;;;;;15.47;73.20;101034.75;5013388;28;20508;-65
2023/05/21 01:47:28;;;;;;;21.67;11.20;;;;;;;15.67;72.44;101031.16;5013953;28;20046;-63
2023/05/21 01:49:55;;;;;;;18.92;11.57;;;;;;;15.80;71.84;101034.78;5032689;28;20409;-63
2023/05/21 01:52:23;;;;;;;16.58;10.57;;;;;;;15.89;71.47;101026.38;5015891;28;20066;-65
2023/05/21 01:54:53;;;;;;;20.90;11.10;;;;;;;15.70;71.80;101036.03;5032213;28;20058;-64
2023/05/21 01:57:20;;;;;;;18.17;10.73;;;;;;;15.47;73.04;101031.16;5017342;28;20052;-63
2023/05/21 01:59:47;;;;;;;20.73;10.98;;;;;;;15.57;72.55;101030.75;4987949;28;20058;-64
2023/05/21 02:02:15;;;;;;;15.75;10.90;;;;;;;15.52;72.89;101031.78;4980288;28;20050;-63
2023/05/21 02:04:43;;;;;;;21.23;12.27;;;;;;;15.30;73.97;101029.31;4996302;28;20062;-64
2023/05/21 02:07:13;;;;;;;17.90;11.80;;;;;;;15.53;73.48;101029.81;4998076;28;20046;-64
2023/05/21 02:09:40;;;;;;;17.95;11.50;;;;;;;15.47;73.24;101040.31;5010246;28;20533;-65
2023/05/21 02:12:08;;;;;;;18.85;11.05;;;;;;;15.58;73.00;101036.00;5016294;28;20417;-64
2023/05/21 02:14:37;;;;;;;18.70;11.95;;;;;;;15.62;72.98;101039.69;5015901;28;20061;-65
2023/05/21 02:17:04;;;;;;;18.58;11.85;;;;;;;15.44;73.42;101031.84;5015809;28;20058;-64
2023/05/21 02:19:31;;;;;;;18.90;11.93;;;;;;;15.10;75.00;101038.41;4996277;28;20050;-64
2023/05/21 02:21:59;;;;;;;20.10;12.50;;;;;;;15.12;75.10;101038.06;5012545;28;20046;-64
2023/05/21 02:24:26;;;;;;;16.40;11.70;;;;;;;15.09;75.70;101041.50;4997867;28;20054;-65
2023/05/21 02:26:53;;;;;;;18.05;11.43;;;;;;;14.99;75.91;101039.97;5011063;28;20050;-65
2023/05/21 02:29:21;;;;;;;19.23;12.55;;;;;;;15.31;74.74;101036.47;5004579;28;20066;-64
2023/05/21 02:31:49;;;;;;;16.95;11.65;;;;;;;14.99;76.10;101042.72;4999626;28;20053;-64
2023/05/21 02:34:19;;;;;;;19.48;11.98;;;;;;;15.18;75.48;101037.56;4998522;28;20058;-64
2023/05/21 02:36:53;;;;;;;17.98;11.05;;;;;;;15.16;75.43;101037.06;5016139;28;20049;-65
2023/05/21 02:39:21;;;;;;;25.55;12.35;;;;;;;15.51;74.14;101032.13;5017914;28;20042;-64
2023/05/21 02:41:48;;;;;;;21.73;12.25;;;;;;;15.56;73.89;101029.13;5015092;28;20042;-67
2023/05/21 02:44:17;;;;;;;17.30;12.00;;;;;;;15.07;75.35;101038.25;4989424;28;20066;-65
2023/05/21 02:46:45;;;;;;;20.77;11.93;;;;;;;15.43;74.32;101035.78;4997139;28;20449;-64
2023/05/21 02:49:12;;;;;;;20.73;12.27;;;;;;;15.36;73.90;101039.03;4980977;28;20289;-65
2023/05/21 02:51:41;;;;;;;21.10;12.30;;;;;;;15.14;75.57;101046.88;5015905;28;20054;-65
2023/05/21 02:54:08;;;;;;;18.13;12.32;;;;;;;14.98;76.18;101035.53;4999268;28;20054;-65
2023/05/21 02:56:35;;;;;;;17.55;12.60;;;;;;;14.91;76.51;101035.25;4998147;28;20061;-64
2023/05/21 02:59:03;;;;;;;20.08;12.02;;;;;;;14.87;77.00;101034.28;5016024;28;20049;-65
2023/05/21 03:01:30;;;;;;;20.35;13.00;;;;;;;14.61;78.06;101033.59;4998146;28;20049;-64
2023/05/21 03:03:58;;;;;;;20.83;12.93;;;;;;;14.68;78.47;101031.13;4997983;28;20060;-64
2023/05/21 03:06:25;;;;;;;20.17;12.57;;;;;;;14.70;78.13;101033.59;5009495;28;20042;-64
2023/05/21 03:08:52;;;;;;;21.42;13.23;;;;;;;14.55;78.62;101038.53;5016174;28;20054;-65
2023/05/21 03:11:21;;;;;;;19.13;13.55;;;;;;;14.61;79.04;101033.59;4996515;28;20042;-65
2023/05/21 03:13:48;;;;;;;19.45;13.55;;;;;;;14.89;77.83;101033.97;5003847;28;20057;-65
2023/05/21 03:16:16;;;;;;;20.15;12.93;;;;;;;14.93;77.29;101046.81;5015628;28;20053;-64
2023/05/21 03:18:43;;;;;;;20.58;12.73;;;;;;;14.77;77.85;101037.44;5015908;28;20050;-64
2023/05/21 03:21:12;;;;;;;23.27;13.68;;;;;;;14.73;78.12;101047.59;5012902;28;20046;-63
2023/05/21 03:23:40;;;;;;;21.73;13.02;;;;;;;14.70;78.30;101051.00;5030707;28;20060;-64
2023/05/21 03:26:07;;;;;;;22.48;13.07;;;;;;;14.70;78.36;101045.47;4983158;28;20788;-65
2023/05/21 03:28:35;;;;;;;19.30;12.73;;;;;;;14.78;78.54;101052.13;4995988;28;20062;-64
2023/05/21 03:31:02;;;;;;;29.35;14.32;;;;;;;14.98;77.46;101054.13;5009297;28;20050;-63
2023/05/21 03:33:44;;;;;;;19.77;12.93;;;;;;;14.89;77.21;101054.19;4997992;28;20490;-65
2023/05/21 03:36:20;;;;;;;28.27;13.93;;;;;;;15.05;76.10;101046.09;5014394;28;20054;-64
2023/05/21 03:38:47;;;;;;;21.10;13.55;;;;;;;14.95;76.96;101049.25;4998018;28;20537;-65
2023/05/21 03:41:15;;;;;;;20.67;14.20;;;;;;;14.77;77.63;101054.09;4998229;28;20041;-65
2023/05/21 03:43:46;;;;;;;24.13;15.35;;;;;;;14.59;78.53;101044.22;5017550;28;20045;-64
2023/05/21 03:46:13;;;;;;;25.23;14.18;;;;;;;14.48;79.83;101049.31;4998060;28;20057;-65
2023/05/21 03:49:04;;;;;;;25.85;15.05;;;;;;;14.38;80.33;101055.19;4997642;28;20057;-64
2023/05/21 03:51:34;;;;;;;;;;;;;;;14.29;80.61;101062.75;4982075;28;20053;-64
2023/05/21 03:54:02;;;;;;;23.88;15.10;;;;;;;14.37;80.53;101055.53;5015406;28;19928;-64
2023/05/21 03:56:30;;;;;;;20.13;15.05;;;;;;;14.47;79.77;101057.97;4997333;28;20058;-64
2023/05/21 03:58:57;;;;;;;21.48;15.85;;;;;;;14.48;79.66;101054.03;5010886;28;20060;-65
2023/05/21 04:01:27;;;;;;;24.65;16.23;;;;;;;14.84;78.68;101050.78;5029533;28;20061;-64
2023/05/21 04:03:54;;;;;;;24.65;15.98;;;;;;;14.85;78.28;101058.78;4996550;28;20057;-64
2023/05/21 04:06:24;;;;;;;22.85;14.73;;;;;;;14.87;77.63;101061.22;5029387;28;20057;-64
2023/05/21 04:08:51;;;;;;;24.33;15.55;;;;;;;14.58;78.61;101067.53;5014159;28;20062;-64
2023/05/21 04:11:19;;;;;;;24.50;16.00;;;;;;;14.48;79.18;101059.59;5012994;28;20054;-64
2023/05/21 04:13:47;;;;;;;23.58;15.18;;;;;;;14.46;79.49;101064.63;5002375;28;20057;-64
2023/05/21 04:16:17;;;;;;;22.00;15.90;;;;;;;14.43;79.63;101077.22;5015098;28;20053;-63
2023/05/21 04:18:46;;;;;;;22.48;15.52;;;;;;;14.53;79.00;101079.63;4997167;28;20057;-64
2023/05/21 04:21:15;;;;;;;21.67;15.65;;;;;;;14.56;78.79;101078.97;4996929;28;20046;-65
2023/05/21 04:23:42;;;;;;;20.35;14.85;;;;;;;14.31;80.42;101076.25;5013627;28;20061;-64
2023/05/21 04:26:22;;;;;;;19.50;14.50;;;;;;;14.38;80.18;101076.56;4997038;28;20053;-64
2023/05/21 04:28:50;;;;;;;22.17;15.32;;;;;;;14.54;79.68;101083.19;4977518;28;20053;-65
2023/05/21 04:31:17;;;;;;;19.88;14.82;;;;;;;14.51;79.51;101087.44;5009666;28;20533;-64
2023/05/21 04:33:44;;;;;;;22.52;15.88;;;;;;;14.47;79.86;101089.25;4993671;28;20073;-64
2023/05/21 04:36:12;;;;;;;24.00;15.35;;;;;;;14.49;79.42;101084.19;5010274;28;20054;-64
2023/05/21 04:38:40;;;;;;;25.33;16.02;;;;;;;14.60;78.97;101087.44;5027345;28;20054;-65
2023/05/21 04:41:09;;;;;;;26.98;16.67;;;;;;;14.54;79.13;101086.78;5014799;28;20056;-64
2023/05/21 04:43:37;;;;;;;22.20;14.77;;;;;;;14.56;79.49;101086.44;5002218;28;20054;-64
2023/05/21 04:46:04;;;;;;;21.00;15.25;;;;;;;14.41;79.62;101082.28;4996897;28;20046;-64
2023/05/21 04:48:33;;;;;;;23.35;15.23;;;;;;;14.59;79.24;101086.59;4996791;28;20485;-65
2023/05/21 04:51:00;;;;;;;19.83;14.90;;;;;;;14.47;79.02;101089.25;4997009;28;20053;-65
2023/05/21 04:53:28;;;;;;;21.20;15.02;;;;;;;14.31;80.31;101095.66;5029727;28;20049;-65
2023/05/21 04:55:58;;;;;;;25.60;15.15;;;;;;;14.50;79.52;101090.56;5029282;28;20413;-65
2023/05/21 04:58:26;;;;;;;24.15;15.48;;;;;;;14.50;79.14;101088.63;5002773;28;20051;-66
2023/05/21 05:00:54;;;;;;;20.52;15.00;;;;;;;14.57;78.91;101088.88;5014146;28;20073;-66
2023/05/21 05:03:22;;;;;;;20.83;15.18;;;;;;;14.66;78.64;101081.38;4998884;28;20057;-66
2023/05/21 05:05:50;;;;;;;21.23;13.93;;;;;;;15.14;77.35;101078.22;4996040;28;20058;-63
2023/05/21 05:08:17;;;;;;;22.00;12.75;;;;;;;15.23;76.70;101084.53;5013786;28;20053;-63
2023/05/21 05:10:45;;;;;;;23.17;12.93;;;;;;;15.44;75.24;101081.81;5012459;28;20057;-63
2023/05/21 05:13:12;;;;;;;22.23;13.15;;;;;;;15.59;75.61;101084.81;4999519;28;20050;-63
2023/05/21 05:15:40;;;;;;;23.42;14.45;;;;;;;15.57;74.20;101081.53;5020454;28;20050;-64
2023/05/21 05:18:07;;;;;;;21.70;14.50;;;;;;;15.21;75.60;101088.78;5012698;28;20054;-64
2023/05/21 05:20:35;;;;;;;20.13;12.23;;;;;;;15.67;74.96;101086.69;5028963;28;20580;-64
2023/05/21 05:23:02;;;;;;;23.50;12.68;;;;;;;15.83;74.40;101073.00;5011065;28;20057;-65
2023/05/21 05:25:30;;;;;;;24.33;13.18;;;;;;;15.77;74.45;101079.94;5035933;28;20049;-65
2023/05/21 05:27:57;;;;;;;19.30;14.15;;;;;;;15.25;75.11;101079.47;5002850;28;20050;-64
2023/05/21 05:30:25;;;;;;;25.92;14.48;;;;;;;15.54;75.09;101085.00;5020702;28;20461;-64
2023/05/21 05:32:55;;;;;;;19.95;11.90;;;;;;;15.67;75.23;101083.13;5002759;28;20057;-64
2023/05/21 05:35:23;;;;;;;18.77;13.15;;;;;;;15.59;74.43;101081.19;5002503;28;20049;-64
2023/05/21 05:37:50;;;;;;;20.00;13.82;;;;;;;15.30;75.74;101081.22;5020668;28;20038;-64
2023/05/21 05:40:18;;;;;;;23.92;14.15;;;;;;;15.37;75.67;101082.31;5002801;28;20068;-64
2023/05/21 05:42:45;;;;;;;21.10;13.98;;;;;;;15.64;74.14;101075.44;5001723;28;20052;-64
2023/05/21 05:45:15;;;;;;;20.80;13.80;;;;;;;15.31;75.83;101094.75;5035728;28;20052;-64
2023/05/21 05:47:42;;;;;;;20.50;13.57;;;;;;;15.25;75.83;101085.00;5035863;28;20639;-65
2023/05/21 05:50:11;;;;;;;27.23;14.47;;;;;;;15.15;76.02;101085.38;5024363;28;20050;-64
2023/05/21 05:52:39;;;;;;;21.58;14.13;;;;;;;15.26;76.50;101086.63;5014190;28;20050;-64
2023/05/21 05:55:07;;;;;;;20.85;14.50;;;;;;;15.04;76.79;101077.78;4999533;28;20054;-64
2023/05/21 05:57:35;;;;;;;23.23;14.30;;;;;;;15.01;77.61;101082.03;4994638;28;20054;-64
2023/05/21 06:00:11;;;;;;;19.60;13.95;;;;;;;14.92;78.02;101081.28;5000772;28;20058;-64
2023/05/21 06:02:39;;;;;;;23.77;14.52;;;;;;;15.21;77.49;101086.81;5019506;28;20145;-64
2023/05/21 06:05:08;;;;;;;25.85;15.75;;;;;;;15.19;75.15;101085.53;4999411;28;20046;-64
2023/05/21 06:07:37;;;;;;;24.30;15.70;;;;;;;15.16;75.13;101077.88;5002744;28;20560;-65
2023/05/21 06:10:05;;;;;;;25.35;15.63;;;;;;;15.08;75.50;101079.53;5019632;28;20058;-64
2023/05/21 06:12:33;;;;;;;25.30;16.00;;;;;;;15.43;74.16;101083.78;5001939;28;20046;-65
2023/05/21 06:15:00;;;;;;;21.25;15.95;;;;;;;15.50;73.35;101083.22;5014605;28;20060;-64
2023/05/21 06:17:28;;;;;;;17.88;13.73;;;;;;;15.90;72.61;101075.25;5018053;28;20061;-63
2023/05/21 06:19:56;;;;;;;23.42;14.98;;;;;;;15.73;72.55;101081.75;4982778;28;20054;-65
2023/05/21 06:22:24;;;;;;;24.42;14.57;;;;;;;15.56;73.38;101079.94;5014888;28;20051;-64
2023/05/21 06:24:52;;;;;;;24.27;14.63;;;;;;;15.37;74.24;101075.94;5013631;28;20056;-64
2023/05/21 06:27:20;;;;;;;17.52;14.15;;;;;;;15.51;73.58;101080.13;5017438;28;20054;-63
2023/05/21 06:29:48;;;;;;;24.52;15.00;;;;;;;15.61;73.08;101087.22;5002074;28;20395;-65
2023/05/21 06:32:16;;;;;;;21.80;14.45;;;;;;;15.76;72.30;101087.44;5019745;28;20057;-65
2023/05/21 06:34:43;;;;;;;23.50;14.27;;;;;;;15.70;72.02;101097.16;5007556;28;20061;-64
2023/05/21 06:37:11;;;;;;;21.23;14.68;;;;;;;15.78;71.96;101093.47;5017243;28;20512;-64
2023/05/21 06:39:38;;;;;;;24.58;14.68;;;;;;;15.55;72.73;101091.38;4989621;28;20058;-65
2023/05/21 06:42:05;;;;;;;21.35;13.77;;;;;;;15.96;72.04;101091.38;5025460;28;20689;-64
2023/05/21 06:44:53;;;;;;;22.35;14.57;;;;;;;15.99;70.90;101087.91;5014042;28;20056;-65
2023/05/21 06:47:42;;;;;;;21.73;14.27;;;;;;;16.22;70.10;101088.34;5009029;28;20058;-65
2023/05/21 06:50:10;;;;;;;22.48;13.63;;;;;;;16.05;70.19;101092.09;4992174;28;20057;-65
2023/05/21 06:52:37;;;;;;;19.90;14.10;;;;;;;16.12;69.70;101086.00;4998900;28;20050;-64
2023/05/21 06:55:06;;;;;;;18.40;13.45;;;;;;;15.90;70.40;101089.94;5014960;28;20050;-64
2023/05/21 06:57:59;;;;;;;20.83;14.32;;;;;;;15.81;70.66;101093.94;5014516;28;20068;-64
2023/05/21 07:00:26;;;;;;;22.40;13.95;;;;;;;15.63;71.77;101093.28;4982687;28;20062;-67
2023/05/21 07:02:54;;;;;;;19.13;13.10;;;;;;;16.02;71.08;101095.56;5015801;28;20417;-65
2023/05/21 07:05:21;;;;;;;20.83;14.05;;;;;;;16.21;69.68;101093.09;5016691;28;20537;-63
2023/05/21 07:07:49;;;;;;;23.42;14.18;;;;;;;15.90;70.47;101097.47;5014780;28;20053;-64
2023/05/21 07:10:16;;;;;;;24.02;14.70;;;;;;;15.88;70.52;101083.13;4998434;28;20064;-64
2023/05/21 07:12:44;;;;;;;19.85;12.93;;;;;;;16.04;70.23;101098.00;4979585;28;20051;-64
2023/05/21 07:15:11;;;;;;;21.15;13.20;;;;;;;16.12;69.55;101088.78;4988232;28;20049;-64
2023/05/21 07:17:38;;;;;;;23.63;14.20;;;;;;;16.25;69.11;101101.56;5014500;28;20060;-64
2023/05/21 07:20:08;;;;;;;19.67;13.35;;;;;;;16.24;69.00;101102.72;5009198;28;20058;-65
2023/05/21 07:22:38;;;;;;;20.83;13.98;;;;;;;16.09;69.52;101092.25;5030771;28;20053;-64
2023/05/21 07:25:07;;;;;;;21.48;13.68;;;;;;;16.31;68.54;101102.97;4998339;28;20424;-64
2023/05/21 07:27:35;;;;;;;17.42;12.88;;;;;;;16.37;68.49;101096.06;5030438;28;20415;-64
2023/05/21 07:30:03;;;;;;;19.98;12.70;;;;;;;16.56;67.47;101108.28;4963384;28;20054;-66
2023/05/21 07:32:31;;;;;;;17.67;12.75;;;;;;;16.59;67.51;101093.72;4978899;28;20050;-65
2023/05/21 07:35:02;;;;;;;21.52;14.13;;;;;;;16.77;66.39;101091.53;4995001;28;20410;-65
2023/05/21 07:37:31;;;;;;;19.58;13.52;;;;;;;16.46;66.93;101099.53;4994682;28;20501;-66
2023/05/21 07:39:58;;;;;;;21.30;13.65;;;;;;;16.66;66.41;101104.25;4996541;28;20046;-65
2023/05/21 07:42:26;;;;;;;18.63;12.52;;;;;;;16.88;65.49;101094.69;4994637;28;20058;-64
2023/05/21 07:44:55;;;;;;;19.50;12.75;;;;;;;16.95;64.71;101106.84;5030087;28;20508;-67
2023/05/21 07:47:24;;;;;;;17.95;12.63;;;;;;;17.14;64.50;101100.72;5007952;28;20058;-66
2023/05/21 07:49:52;;;;;;;19.40;13.35;;;;;;;17.12;63.68;101095.47;5013432;28;20057;-65
2023/05/21 07:52:19;;;;;;;16.55;13.02;;;;;;;17.19;63.39;101103.28;5014379;28;20060;-65
2023/05/21 07:54:47;;;;;;;16.70;12.48;;;;;;;17.26;63.86;101098.72;5030773;28;20266;-64
2023/05/21 07:57:15;;;;;;;16.85;12.10;;;;;;;17.64;62.52;101085.25;4996376;28;20053;-65
2023/05/21 07:59:58;;;;;;;17.60;11.90;;;;;;;17.73;61.74;101085.13;5003516;28;20061;-64
2023/05/21 08:02:26;;;;;;;15.57;11.15;;;;;;;17.72;61.89;101087.09;4997482;28;20060;-64
2023/05/21 08:04:53;;;;;;;16.77;10.95;;;;;;;17.73;60.99;101090.72;4997492;28;20374;-65
2023/05/21 08:07:21;;;;;;;16.05;10.63;;;;;;;17.77;60.81;101089.63;5014534;28;20049;-64
2023/05/21 08:09:48;;;;;;;16.67;11.13;;;;;;;17.73;61.09;101087.91;5015511;28;20050;-65
2023/05/21 08:12:18;;;;;;;15.30;9.40;;;;;;;17.83;60.23;101101.34;5001884;28;20517;-65
2023/05/21 08:14:45;;;;;;;15.50;9.48;;;;;;;17.69;60.63;101103.72;4995893;28;20058;-67
2023/05/21 08:17:15;;;;;;;12.65;9.13;;;;;;;17.75;60.33;101093.94;5000631;28;20414;-65
2023/05/21 08:19:43;;;;;;;11.75;8.18;;;;;;;17.74;60.40;101098.72;5014131;28;20049;-65
2023/05/21 08:22:10;;;;;;;13.98;9.02;;;;;;;17.47;60.81;101091.09;5013941;28;20054;-68
2023/05/21 08:24:41;;;;;;;15.18;9.25;;;;;;;17.41;61.06;101102.78;4998029;28;20049;-66
2023/05/21 08:27:09;;;;;;;17.90;9.77;;;;;;;17.27;61.42;101072.53;5000962;28;20061;-65
2023/05/21 08:29:36;;;;;;;14.18;8.77;;;;;;;17.33;61.12;101076.69;5026028;28;20057;-65
2023/05/21 08:32:05;;;;;;;16.73;8.50;;;;;;;17.42;61.27;101071.81;5013939;28;20084;-65
2023/05/21 08:34:33;;;;;;;16.38;8.60;;;;;;;17.40;61.06;101076.91;5006885;28;20054;-65
2023/05/21 08:37:17;;;;;;;15.38;7.93;;;;;;;17.21;61.46;101067.56;5014083;28;20057;-65
2023/05/21 08:39:59;;;;;;;12.80;8.38;;;;;;;17.25;62.16;101062.88;4996987;28;20094;-65
2023/05/21 08:42:42;;;;;;;15.43;8.30;;;;;;;17.38;61.40;101075.66;4996092;28;20054;-65
2023/05/21 08:45:21;;;;;;;14.60;8.30;;;;;;;17.52;60.92;101082.47;5011390;28;20070;-65
2023/05/21 08:47:58;;;;;;;13.15;7.72;;;;;;;17.57;60.32;101073.88;4996880;28;20061;-65
2023/05/21 08:50:30;;;;;;;11.35;7.57;;;;;;;17.40;60.82;101073.34;4996844;28;20670;-64
2023/05/21 08:53:01;;;;;;;12.80;7.75;;;;;;;17.45;61.10;101071.09;5013256;28;20050;-65
2023/05/21 08:55:42;;;;;;;12.35;7.53;;;;;;;17.73;60.32;101060.84;5013169;28;20091;-65
2023/05/21 08:58:12;;;;;;;16.75;7.10;;;;;;;18.03;59.80;101052.94;5011167;28;20414;-65
2023/05/21 09:00:40;;;;;;;13.88;7.25;;;;;;;17.93;59.21;101047.88;5014189;28;20558;-65
2023/05/21 09:03:11;;;;;;;12.27;7.47;;;;;;;18.13;59.01;101055.25;4993098;28;20053;-66
2023/05/21 09:05:41;;;;;;;12.18;6.43;;;;;;;18.38;58.11;101051.16;5012884;28;20056;-65
2023/05/21 09:08:20;;;;;;;10.88;6.32;;;;;;;18.40;57.16;101048.84;5022988;28;20062;-65
2023/05/21 09:11:07;;;;;;;13.00;7.13;;;;;;;17.84;58.79;101070.34;4991203;28;20050;-64
2023/05/21 09:13:42;;;;;;;9.70;6.47;;;;;;;18.21;58.56;101070.19;4985213;28;20038;-65
2023/05/21 09:16:16;;;;;;;12.32;6.97;;;;;;;18.04;58.78;101057.38;4989411;28;20543;-65
2023/05/21 09:18:44;;;;;;;13.05;6.80;;;;;;;18.23;58.16;101057.53;4995016;28;20054;-65
2023/05/21 09:21:23;;;;;;;12.93;7.15;;;;;;;18.25;57.58;101071.09;4989982;28;20386;-66
2023/05/21 09:23:56;;;;;;;10.13;6.55;;;;;;;18.21;57.59;101067.41;5009011;28;20054;-65
2023/05/21 09:26:24;;;;;;;9.90;5.40;;;;;;;18.28;56.99;101054.47;5005304;28;20046;-65
2023/05/21 09:28:57;;;;;;;12.77;7.65;;;;;;;18.14;57.43;101065.22;5005957;28;20050;-65
2023/05/21 09:31:25;;;;;;;11.52;6.88;;;;;;;17.90;58.35;101045.81;5004156;28;20049;-64
2023/05/21 09:33:54;;;;;;;14.68;6.72;;;;;;;18.04;58.22;101051.81;4995891;28;20050;-65
2023/05/21 09:36:23;;;;;;;12.00;6.70;;;;;;;18.13;57.92;101060.00;4998175;28;20042;-64
2023/05/21 09:38:51;;;;;;;11.73;6.82;;;;;;;18.14;57.96;101054.06;5004903;28;20052;-65
2023/05/21 09:41:18;;;;;;;14.27;6.97;;;;;;;18.17;57.58;101053.34;4979844;28;20058;-65
2023/05/21 09:43:48;;;;;;;10.73;7.38;;;;;;;18.04;58.70;101048.19;5008338;28;20050;-64
2023/05/21 09:46:20;;;;;;;12.50;7.65;;;;;;;18.41;58.40;101072.78;5002843;28;20053;-64
2023/05/21 09:48:48;;;;;;;16.00;8.32;;;;;;;18.30;58.66;101046.56;4978776;28;20050;-64
2023/05/21 09:51:19;;;;;;;11.45;8.18;;;;;;;18.00;59.22;101045.31;5008576;28;20058;-64
2023/05/21 09:53:56;;;;;;;13.30;8.05;;;;;;;18.12;59.08;101047.22;5004602;28;20058;-63
2023/05/21 09:56:25;;;;;;;15.38;8.57;;;;;;;18.21;59.37;101033.94;5000976;28;20494;-64
2023/05/21 09:58:53;;;;;;;12.63;8.23;;;;;;;18.27;58.80;101038.88;5004389;28;20077;-65
2023/05/21 10:01:22;;;;;;;13.75;8.70;;;;;;;18.56;57.93;101035.72;5006419;28;20417;-65
2023/05/21 10:03:55;;;;;;;15.15;9.85;;;;;;;18.39;58.43;101046.38;4996899;28;20058;-65
2023/05/21 10:06:25;;;;;;;16.40;10.88;;;;;;;18.29;58.98;101019.81;5006016;28;20046;-65
2023/05/21 10:08:58;;;;;;;13.68;8.77;;;;;;;18.47;58.89;101025.91;5013140;28;20054;-65
2023/05/21 10:11:26;;;;;;;14.82;8.90;;;;;;;18.60;58.29;101033.03;5011015;28;20533;-64
2023/05/21 10:14:00;;;;;;;13.50;8.57;;;;;;;18.69;58.37;101030.88;5024115;28;20057;-64
2023/05/21 10:16:28;;;;;;;13.85;9.20;;;;;;;18.71;57.99;101025.72;5029603;28;20054;-63
2023/05/21 10:18:56;;;;;;;12.70;9.55;;;;;;;18.55;57.93;101045.25;5014793;28;20456;-65
2023/05/21 10:21:25;;;;;;;18.02;9.80;;;;;;;18.66;58.12;101029.59;5026018;28;20058;-62
2023/05/21 10:23:55;;;;;;;16.05;9.30;;;;;;;18.88;57.95;101025.38;4999344;28;20057;-65
2023/05/21 10:26:23;;;;;;;21.33;8.98;;;;;;;18.94;57.72;101026.72;5013562;28;20508;-66
2023/05/21 10:28:51;;;;;;;12.32;8.93;;;;;;;19.22;56.79;101034.94;5023644;28;20054;-64
2023/05/21 10:31:18;;;;;;;12.63;9.50;;;;;;;18.96;57.08;101033.56;5018702;28;20531;-64
2023/05/21 10:33:47;;;;;;;13.48;8.63;;;;;;;19.11;57.11;101022.72;5019760;28;20037;-65
2023/05/21 10:36:19;;;;;;;13.02;8.93;;;;;;;18.93;56.69;101017.50;5020583;28;20046;-65
2023/05/21 10:38:46;;;;;;;11.27;8.50;;;;;;;18.86;56.93;101017.34;5017852;28;20057;-65
2023/05/21 10:41:15;;;;;;;12.63;8.18;;;;;;;19.08;56.60;101024.25;5026493;28;20058;-64
2023/05/21 10:44:00;;;;;;;13.95;8.05;;;;;;;19.33;55.14;101019.28;5008405;28;20045;-64
2023/05/21 10:46:36;;;;;;;13.38;8.77;;;;;;;18.84;55.76;101022.50;5005865;28;20033;-64
2023/05/21 10:49:29;;;;;;;16.45;9.07;;;;;;;19.08;55.43;101013.91;5017379;28;20058;-63
2023/05/21 10:52:24;;;;;;;12.82;8.38;;;;;;;19.32;55.47;101010.09;5007441;28;20085;-63
2023/05/21 10:55:11;;;;;;;14.20;8.10;;;;;;;19.43;55.16;100997.16;5010604;28;20080;-64
2023/05/21 10:57:58;;;;;;;14.60;8.90;;;;;;;19.14;55.78;101013.63;5023612;28;20053;-63
2023/05/21 11:00:26;;;;;;;13.43;8.35;;;;;;;19.40;55.35;101006.28;5025958;28;20049;-64
2023/05/21 11:02:54;;;;;;;12.02;7.85;;;;;;;19.71;55.13;100996.97;5025361;28;20048;-64
2023/05/21 11:05:56;;;;;;;14.23;8.20;;;;;;;19.62;55.48;101002.78;5022457;28;20054;-64
2023/05/21 11:08:24;;;;;;;10.80;7.50;;;;;;;19.71;54.39;100999.75;5030023;28;20061;-63
2023/05/21 11:10:53;;;;;;;12.18;7.22;;;;;;;19.64;54.36;100991.22;5027664;28;20053;-64
2023/05/21 11:13:23;;;;;;;11.50;6.95;;;;;;;19.81;53.29;100988.78;5029951;28;20050;-64
2023/05/21 11:15:57;;;;;;;14.18;7.13;;;;;;;19.76;53.35;100994.69;5024292;28;20057;-63
2023/05/21 11:18:44;;;;;;;11.15;8.07;;;;;;;19.64;53.47;100985.63;5010159;28;20084;-63
2023/05/21 11:21:17;;;;;;;10.50;7.20;;;;;;;20.01;52.50;100990.38;5002412;28;20057;-62
2023/05/21 11:23:51;;;;;;;12.10;7.95;;;;;;;19.72;53.40;100984.59;5009662;28;20049;-64